Wetterdaten: Woche 15.04.13 - 21.04.13 (KW16)
Datum Zeit Temp. Aussen +5cm Feuchte Auss Luftdruck Regen Sonnenschein Regendauer UV Solar Windben
15.04.2013 00:00 16,1 C 13,8 C 74 % 1017,7 hPa 0,0 l/m 0,00 h 0,00 h 0,0 UV-I 0 W/m 15,8 km/h (3 Bft)
15.04.2013 01:00 15,9 C 13,6 C 74 % 1017,6 hPa 0,0 l/m 0,00 h 0,00 h 0,0 UV-I 0 W/m 17,4 km/h (3 Bft)
15.04.2013 02:00 15,0 C 12,6 C 76 % 1017,2 hPa 0,0 l/m 0,00 h 0,00 h 0,0 UV-I 0 W/m 12,8 km/h (3 Bft)
15.04.2013 03:00 14,2 C 11,9 C 78 % 1017,0 hPa 0,0 l/m 0,00 h 0,00 h 0,0 UV-I 0 W/m 11,7 km/h (2 Bft)
15.04.2013 04:00 13,7 C 11,5 C 79 % 1017,0 hPa 0,0 l/m 0,00 h 0,00 h 0,0 UV-I 0 W/m 11,8 km/h (2 Bft)
15.04.2013 05:00 13,2 C 10,8 C 81 % 1017,1 hPa 0,0 l/m 0,00 h 0,00 h 0,0 UV-I 0 W/m 4,1 km/h (1 Bft)
15.04.2013 06:00 12,4 C 9,8 C 84 % 1017,3 hPa 0,0 l/m 0,00 h 0,00 h 0,0 UV-I 10 W/m 0,9 km/h (0 Bft)
15.04.2013 07:00 12,1 C 10,6 C 86 % 1017,7 hPa 0,0 l/m 0,00 h 0,00 h 0,0 UV-I 32 W/m 7,5 km/h (2 Bft)
15.04.2013 08:00 13,7 C 12,5 C 82 % 1017,9 hPa 0,0 l/m 0,00 h 0,00 h 0,0 UV-I 53 W/m 11,2 km/h (2 Bft)
15.04.2013 09:00 15,9 C 15,5 C 77 % 1018,6 hPa 0,0 l/m 0,20 h 0,00 h 0,5 UV-I 179 W/m 1,5 km/h (1 Bft)
15.04.2013 10:00 18,5 C 19,5 C 68 % 1018,7 hPa 0,0 l/m 0,77 h 0,00 h 1,0 UV-I 361 W/m 1,0 km/h (0 Bft)
15.04.2013 11:00 20,3 C 20,7 C 63 % 1019,0 hPa 0,0 l/m 0,67 h 0,00 h 1,6 UV-I 453 W/m 13,4 km/h (3 Bft)
15.04.2013 12:00 20,8 C 22,0 C 64 % 1019,3 hPa 0,0 l/m 0,70 h 0,00 h 2,1 UV-I 528 W/m 16,5 km/h (3 Bft)
15.04.2013 13:00 19,4 C 18,4 C 63 % 1019,9 hPa 0,0 l/m 0,00 h 0,00 h 1,0 UV-I 168 W/m 8,7 km/h (2 Bft)
15.04.2013 14:00 17,3 C 15,2 C 69 % 1020,4 hPa 0,0 l/m 0,00 h 0,20 h 0,0 UV-I 58 W/m 8,2 km/h (2 Bft)
15.04.2013 15:00 15,1 C 12,2 C 83 % 1019,9 hPa 0,4 l/m 0,07 h 0,93 h 0,8 UV-I 128 W/m 3,4 km/h (1 Bft)
15.04.2013 16:00 15,7 C 14,7 C 84 % 1019,5 hPa 0,0 l/m 0,73 h 0,17 h 0,9 UV-I 429 W/m 5,3 km/h (1 Bft)
15.04.2013 17:00 17,5 C 16,5 C 75 % 1019,4 hPa 0,0 l/m 0,37 h 0,00 h 0,7 UV-I 239 W/m 2,4 km/h (1 Bft)
15.04.2013 18:00 17,1 C 16,5 C 74 % 1019,3 hPa 0,0 l/m 0,07 h 0,00 h 0,0 UV-I 107 W/m 0,7 km/h (0 Bft)
15.04.2013 19:00 16,7 C 14,8 C 76 % 1019,5 hPa 0,0 l/m 0,00 h 0,00 h 0,0 UV-I 28 W/m 0,3 km/h (0 Bft)
15.04.2013 20:00 15,9 C 13,0 C 79 % 1019,5 hPa 0,0 l/m 0,00 h 0,00 h 0,0 UV-I 6 W/m 0,0 km/h (0 Bft)
15.04.2013 21:00 14,9 C 11,5 C 82 % 1019,5 hPa 0,0 l/m 0,00 h 0,00 h 0,0 UV-I 0 W/m 0,0 km/h (0 Bft)
15.04.2013 22:00 13,7 C 10,4 C 86 % 1019,2 hPa 0,0 l/m 0,00 h 0,00 h 0,0 UV-I 0 W/m 0,0 km/h (0 Bft)
15.04.2013 23:00 12,5 C 9,6 C 88 % 1019,1 hPa 0,0 l/m 0,00 h 0,00 h 0,0 UV-I 0 W/m 0,0 km/h (0 Bft)
16.04.2013 00:00 11,7 C 9,6 C 91 % 1019,2 hPa 0,0 l/m 0,00 h 0,00 h 0,0 UV-I 0 W/m 0,0 km/h (0 Bft)
16.04.2013 01:00 11,3 C 9,4 C 92 % 1019,0 hPa 0,0 l/m 0,00 h 0,00 h 0,0 UV-I 0 W/m 0,0 km/h (0 Bft)
16.04.2013 02:00 11,1 C 9,1 C 94 % 1018,8 hPa 0,0 l/m 0,00 h 0,00 h 0,0 UV-I 0 W/m 0,0 km/h (0 Bft)
16.04.2013 03:00 10,5 C 7,7 C 94 % 1018,4 hPa 0,0 l/m 0,00 h 0,00 h 0,0 UV-I 0 W/m 0,0 km/h (0 Bft)
16.04.2013 04:00 9,9 C 7,6 C 96 % 1018,1 hPa 0,0 l/m 0,00 h 0,00 h 0,0 UV-I 0 W/m 0,1 km/h (0 Bft)
16.04.2013 05:00 9,7 C 7,6 C 97 % 1018,3 hPa 0,0 l/m 0,00 h 0,00 h 0,0 UV-I 0 W/m 0,1 km/h (0 Bft)
16.04.2013 06:00 9,8 C 7,9 C 98 % 1018,3 hPa 0,0 l/m 0,00 h 0,00 h 0,0 UV-I 7 W/m 1,8 km/h (1 Bft)
16.04.2013 07:00 10,4 C 9,4 C 99 % 1018,3 hPa 0,0 l/m 0,00 h 0,00 h 0,0 UV-I 27 W/m 5,5 km/h (1 Bft)
16.04.2013 08:00 11,6 C 11,3 C 100 % 1018,4 hPa 0,0 l/m 0,00 h 0,00 h 0,0 UV-I 72 W/m 5,3 km/h (1 Bft)
16.04.2013 09:00 14,3 C 14,7 C 87 % 1018,6 hPa 0,0 l/m 0,20 h 0,00 h 0,0 UV-I 210 W/m 9,8 km/h (2 Bft)
16.04.2013 10:00 16,5 C 17,4 C 73 % 1018,6 hPa 0,0 l/m 0,90 h 0,00 h 0,9 UV-I 369 W/m 12,9 km/h (3 Bft)
16.04.2013 11:00 17,8 C 18,2 C 66 % 1018,4 hPa 0,0 l/m 0,77 h 0,00 h 1,7 UV-I 454 W/m 16,6 km/h (3 Bft)
16.04.2013 12:00 18,9 C 19,4 C 60 % 1018,3 hPa 0,0 l/m 0,60 h 0,00 h 2,2 UV-I 514 W/m 21,9 km/h (4 Bft)
16.04.2013 13:00 19,0 C 18,9 C 58 % 1018,2 hPa 0,0 l/m 0,17 h 0,00 h 1,5 UV-I 339 W/m 23,3 km/h (4 Bft)
16.04.2013 14:00 18,9 C 18,7 C 56 % 1018,1 hPa 0,0 l/m 0,07 h 0,00 h 1,2 UV-I 299 W/m 23,2 km/h (4 Bft)
16.04.2013 15:00 19,5 C 19,4 C 46 % 1018,2 hPa 0,0 l/m 0,57 h 0,00 h 1,5 UV-I 397 W/m 24,2 km/h (4 Bft)
16.04.2013 16:00 19,7 C 19,3 C 42 % 1018,0 hPa 0,0 l/m 0,43 h 0,00 h 0,9 UV-I 306 W/m 18,8 km/h (3 Bft)
16.04.2013 17:00 19,3 C 18,5 C 44 % 1018,1 hPa 0,0 l/m 0,00 h 0,00 h 0,0 UV-I 173 W/m 16,2 km/h (3 Bft)
16.04.2013 18:00 18,7 C 17,4 C 49 % 1018,3 hPa 0,0 l/m 0,00 h 0,00 h 0,0 UV-I 91 W/m 9,9 km/h (2 Bft)
16.04.2013 19:00 17,8 C 14,9 C 56 % 1018,8 hPa 0,0 l/m 0,00 h 0,00 h 0,0 UV-I 20 W/m 13,6 km/h (3 Bft)
16.04.2013 20:00 16,6 C 14,8 C 67 % 1019,5 hPa 0,0 l/m 0,00 h 0,07 h 0,0 UV-I 5 W/m 12,4 km/h (3 Bft)
16.04.2013 21:00 15,3 C 12,9 C 78 % 1020,3 hPa 0,0 l/m 0,00 h 0,23 h 0,0 UV-I 0 W/m 6,7 km/h (2 Bft)
16.04.2013 22:00 14,3 C 12,6 C 82 % 1020,4 hPa 0,0 l/m 0,00 h 0,00 h 0,0 UV-I 0 W/m 0,3 km/h (0 Bft)
16.04.2013 23:00 14,0 C 12,3 C 84 % 1020,6 hPa 0,0 l/m 0,00 h 0,00 h 0,0 UV-I 0 W/m 0,5 km/h (0 Bft)
17.04.2013 00:00 13,8 C 12,3 C 85 % 1020,7 hPa 0,0 l/m 0,00 h 0,00 h 0,0 UV-I 0 W/m 0,2 km/h (0 Bft)
17.04.2013 01:00 13,9 C 12,4 C 84 % 1020,9 hPa 0,0 l/m 0,00 h 0,00 h 0,0 UV-I 0 W/m 0,9 km/h (0 Bft)
17.04.2013 02:00 13,9 C 12,3 C 85 % 1021,0 hPa 0,0 l/m 0,00 h 0,00 h 0,0 UV-I 0 W/m 0,6 km/h (0 Bft)
17.04.2013 03:00 13,8 C 12,3 C 88 % 1021,3 hPa 0,0 l/m 0,00 h 0,00 h 0,0 UV-I 0 W/m 0,5 km/h (0 Bft)
17.04.2013 04:00 13,4 C 11,7 C 90 % 1021,2 hPa 0,0 l/m 0,00 h 0,00 h 0,0 UV-I 0 W/m 0,9 km/h (0 Bft)
17.04.2013 05:00 12,5 C 11,0 C 94 % 1021,1 hPa 0,0 l/m 0,00 h 0,00 h 0,0 UV-I 0 W/m 0,0 km/h (0 Bft)
17.04.2013 06:00 12,1 C 11,2 C 95 % 1021,0 hPa 0,0 l/m 0,00 h 0,00 h 0,0 UV-I 6 W/m 0,0 km/h (0 Bft)
17.04.2013 07:00 12,4 C 11,8 C 97 % 1021,2 hPa 0,0 l/m 0,00 h 0,00 h 0,0 UV-I 26 W/m 1,2 km/h (1 Bft)
17.04.2013 08:00 13,3 C 13,3 C 96 % 1021,3 hPa 0,0 l/m 0,00 h 0,00 h 0,0 UV-I 82 W/m 3,5 km/h (1 Bft)
17.04.2013 09:00 14,6 C 14,5 C 91 % 1021,6 hPa 0,0 l/m 0,00 h 0,00 h 0,0 UV-I 112 W/m 7,3 km/h (2 Bft)
17.04.2013 10:00 15,4 C 15,7 C 85 % 1021,4 hPa 0,0 l/m 0,00 h 0,00 h 0,5 UV-I 158 W/m 5,1 km/h (1 Bft)
17.04.2013 11:00 16,5 C 16,7 C 79 % 1021,2 hPa 0,0 l/m 0,00 h 0,00 h 0,7 UV-I 184 W/m 8,6 km/h (2 Bft)
17.04.2013 12:00 18,0 C 19,0 C 73 % 1020,6 hPa 0,0 l/m 0,03 h 0,00 h 1,3 UV-I 297 W/m 10,5 km/h (2 Bft)
17.04.2013 13:00 20,0 C 21,9 C 64 % 1019,8 hPa 0,0 l/m 0,47 h 0,00 h 2,6 UV-I 474 W/m 12,1 km/h (2 Bft)
17.04.2013 14:00 21,7 C 22,4 C 58 % 1019,0 hPa 0,0 l/m 0,93 h 0,00 h 2,9 UV-I 613 W/m 15,4 km/h (3 Bft)
17.04.2013 15:00 22,5 C 22,2 C 54 % 1018,2 hPa 0,0 l/m 0,47 h 0,00 h 1,7 UV-I 382 W/m 15,2 km/h (3 Bft)
17.04.2013 16:00 23,3 C 23,9 C 51 % 1017,4 hPa 0,0 l/m 0,93 h 0,00 h 1,6 UV-I 495 W/m 13,8 km/h (3 Bft)
17.04.2013 17:00 24,2 C 22,4 C 51 % 1016,6 hPa 0,0 l/m 0,90 h 0,00 h 0,8 UV-I 311 W/m 11,6 km/h (2 Bft)
17.04.2013 18:00 23,5 C 21,1 C 52 % 1016,0 hPa 0,0 l/m 0,00 h 0,00 h 0,0 UV-I 130 W/m 4,5 km/h (1 Bft)
17.04.2013 19:00 22,9 C 19,7 C 55 % 1015,4 hPa 0,0 l/m 0,00 h 0,00 h 0,0 UV-I 61 W/m 1,5 km/h (1 Bft)
17.04.2013 20:00 21,7 C 17,1 C 58 % 1014,8 hPa 0,0 l/m 0,00 h 0,00 h 0,0 UV-I 17 W/m 0,7 km/h (0 Bft)
17.04.2013 21:00 20,0 C 15,8 C 61 % 1014,5 hPa 0,0 l/m 0,00 h 0,00 h 0,0 UV-I 0 W/m 4,4 km/h (1 Bft)
17.04.2013 22:00 19,0 C 16,0 C 65 % 1013,8 hPa 0,0 l/m 0,00 h 0,00 h 0,0 UV-I 0 W/m 10,2 km/h (2 Bft)
17.04.2013 23:00 18,7 C 16,2 C 65 % 1012,9 hPa 0,0 l/m 0,00 h 0,00 h 0,0 UV-I 0 W/m 12,4 km/h (3 Bft)
18.04.2013 00:00 18,5 C 15,9 C 65 % 1012,3 hPa 0,0 l/m 0,00 h 0,00 h 0,0 UV-I 0 W/m 17,2 km/h (3 Bft)
18.04.2013 01:00 18,0 C 15,6 C 66 % 1011,8 hPa 0,0 l/m 0,00 h 0,00 h 0,0 UV-I 0 W/m 14,8 km/h (3 Bft)
18.04.2013 02:00 17,1 C 14,2 C 70 % 1011,0 hPa 0,0 l/m 0,00 h 0,00 h 0,0 UV-I 0 W/m 12,1 km/h (2 Bft)
18.04.2013 03:00 16,3 C 13,7 C 72 % 1010,5 hPa 0,0 l/m 0,00 h 0,00 h 0,0 UV-I 0 W/m 12,4 km/h (3 Bft)
18.04.2013 04:00 15,6 C 13,0 C 75 % 1010,4 hPa 0,0 l/m 0,00 h 0,00 h 0,0 UV-I 0 W/m 5,9 km/h (2 Bft)
18.04.2013 05:00 14,8 C 11,9 C 77 % 1010,6 hPa 0,0 l/m 0,00 h 0,00 h 0,0 UV-I 0 W/m 2,0 km/h (1 Bft)
18.04.2013 06:00 15,3 C 13,6 C 76 % 1012,1 hPa 0,0 l/m 0,00 h 0,00 h 0,0 UV-I 9 W/m 17,4 km/h (3 Bft)
18.04.2013 07:00 14,1 C 12,7 C 76 % 1013,3 hPa 0,0 l/m 0,00 h 0,00 h 0,0 UV-I 22 W/m 13,4 km/h (3 Bft)
18.04.2013 08:00 13,5 C 12,4 C 68 % 1014,3 hPa 0,0 l/m 0,00 h 0,00 h 0,0 UV-I 49 W/m 16,3 km/h (3 Bft)
18.04.2013 09:00 14,3 C 15,2 C 60 % 1015,0 hPa 0,0 l/m 0,67 h 0,00 h 0,7 UV-I 296 W/m 21,5 km/h (4 Bft)
18.04.2013 10:00 15,3 C 18,7 C 52 % 1015,5 hPa 0,0 l/m 1,00 h 0,00 h 1,5 UV-I 498 W/m 22,5 km/h (4 Bft)
18.04.2013 11:00 16,0 C 16,9 C 48 % 1016,1 hPa 0,0 l/m 1,00 h 0,00 h 2,7 UV-I 614 W/m 24,3 km/h (4 Bft)
18.04.2013 12:00 16,7 C 20,1 C 45 % 1016,3 hPa 0,0 l/m 1,00 h 0,00 h 3,6 UV-I 717 W/m 26,2 km/h (4 Bft)
18.04.2013 13:00 17,2 C 19,1 C 47 % 1016,7 hPa 0,0 l/m 0,93 h 0,00 h 3,7 UV-I 727 W/m 26,7 km/h (4 Bft)
18.04.2013 14:00 17,0 C 16,9 C 48 % 1017,0 hPa 0,0 l/m 0,67 h 0,00 h 2,9 UV-I 595 W/m 27,4 km/h (4 Bft)
18.04.2013 15:00 17,5 C 17,5 C 46 % 1016,8 hPa 0,0 l/m 0,67 h 0,00 h 2,4 UV-I 553 W/m 25,4 km/h (4 Bft)
18.04.2013 16:00 17,5 C 17,9 C 45 % 1016,7 hPa 0,0 l/m 0,80 h 0,00 h 1,5 UV-I 524 W/m 25,8 km/h (4 Bft)
18.04.2013 17:00 17,2 C 16,6 C 45 % 1016,8 hPa 0,0 l/m 0,70 h 0,00 h 0,8 UV-I 336 W/m 25,0 km/h (4 Bft)
18.04.2013 18:00 16,6 C 15,7 C 45 % 1016,9 hPa 0,0 l/m 0,67 h 0,00 h 0,0 UV-I 192 W/m 21,3 km/h (4 Bft)
18.04.2013 19:00 15,4 C 14,0 C 48 % 1017,0 hPa 0,0 l/m 0,07 h 0,00 h 0,0 UV-I 53 W/m 16,7 km/h (3 Bft)
18.04.2013 20:00 14,5 C 12,7 C 49 % 1017,5 hPa 0,0 l/m 0,10 h 0,00 h 0,0 UV-I 15 W/m 12,4 km/h (3 Bft)
18.04.2013 21:00 13,6 C 11,6 C 53 % 1018,1 hPa 0,0 l/m 0,00 h 0,00 h 0,0 UV-I 0 W/m 5,3 km/h (1 Bft)
18.04.2013 22:00 12,2 C 9,0 C 57 % 1018,5 hPa 0,0 l/m 0,00 h 0,00 h 0,0 UV-I 0 W/m 0,3 km/h (0 Bft)
18.04.2013 23:00 10,5 C 7,0 C 64 % 1018,1 hPa 0,0 l/m 0,00 h 0,00 h 0,0 UV-I 0 W/m 0,1 km/h (0 Bft)
19.04.2013 00:00 9,2 C 6,4 C 69 % 1018,3 hPa 0,0 l/m 0,00 h 0,00 h 0,0 UV-I 0 W/m 0,0 km/h (0 Bft)
19.04.2013 01:00 9,5 C 8,3 C 71 % 1018,8 hPa 0,0 l/m 0,00 h 0,03 h 0,0 UV-I 0 W/m 7,1 km/h (2 Bft)
19.04.2013 02:00 10,0 C 8,1 C 70 % 1019,2 hPa 0,0 l/m 0,00 h 0,00 h 0,0 UV-I 0 W/m 5,0 km/h (1 Bft)
19.04.2013 03:00 9,2 C 7,5 C 74 % 1019,6 hPa 0,0 l/m 0,00 h 0,00 h 0,0 UV-I 0 W/m 7,0 km/h (2 Bft)
19.04.2013 04:00 8,4 C 7,0 C 78 % 1020,0 hPa 0,0 l/m 0,00 h 0,00 h 0,0 UV-I 0 W/m 7,3 km/h (2 Bft)
19.04.2013 05:00 7,9 C 6,5 C 81 % 1020,3 hPa 0,0 l/m 0,00 h 0,00 h 0,0 UV-I 0 W/m 6,8 km/h (2 Bft)
19.04.2013 06:00 7,2 C 5,7 C 84 % 1020,5 hPa 0,0 l/m 0,00 h 0,00 h 0,0 UV-I 6 W/m 4,9 km/h (1 Bft)
19.04.2013 07:00 6,8 C 5,8 C 86 % 1021,2 hPa 0,0 l/m 0,00 h 0,00 h 0,0 UV-I 22 W/m 3,4 km/h (1 Bft)
19.04.2013 08:00 7,7 C 6,9 C 84 % 1021,7 hPa 0,0 l/m 0,00 h 0,00 h 0,0 UV-I 45 W/m 12,1 km/h (2 Bft)
19.04.2013 09:00 9,3 C 9,9 C 78 % 1022,2 hPa 0,0 l/m 0,43 h 0,00 h 0,5 UV-I 238 W/m 14,8 km/h (3 Bft)
19.04.2013 10:00 10,4 C 12,3 C 73 % 1022,5 hPa 0,0 l/m 0,40 h 0,00 h 1,1 UV-I 343 W/m 14,4 km/h (3 Bft)
19.04.2013 11:00 11,4 C 12,4 C 69 % 1023,1 hPa 0,0 l/m 0,17 h 0,00 h 1,2 UV-I 317 W/m 13,6 km/h (3 Bft)
19.04.2013 12:00 11,9 C 13,6 C 66 % 1023,4 hPa 0,0 l/m 0,23 h 0,00 h 1,5 UV-I 394 W/m 13,5 km/h (3 Bft)
19.04.2013 13:00 12,9 C 13,5 C 63 % 1023,5 hPa 0,0 l/m 0,07 h 0,00 h 1,1 UV-I 287 W/m 12,1 km/h (2 Bft)
19.04.2013 14:00 12,1 C 11,6 C 64 % 1023,7 hPa 0,0 l/m 0,00 h 0,00 h 0,0 UV-I 113 W/m 11,2 km/h (2 Bft)
19.04.2013 15:00 12,2 C 12,7 C 64 % 1023,8 hPa 0,0 l/m 0,10 h 0,00 h 0,8 UV-I 263 W/m 7,8 km/h (2 Bft)
19.04.2013 16:00 13,5 C 13,5 C 60 % 1023,9 hPa 0,0 l/m 0,27 h 0,00 h 0,7 UV-I 288 W/m 11,4 km/h (2 Bft)
19.04.2013 17:00 12,7 C 12,1 C 66 % 1024,3 hPa 0,0 l/m 0,30 h 0,00 h 0,0 UV-I 239 W/m 15,8 km/h (3 Bft)
19.04.2013 18:00 11,6 C 11,0 C 69 % 1024,9 hPa 0,0 l/m 0,03 h 0,00 h 0,0 UV-I 128 W/m 14,1 km/h (3 Bft)
19.04.2013 19:00 10,7 C 9,6 C 74 % 1025,3 hPa 0,0 l/m 0,00 h 0,00 h 0,0 UV-I 50 W/m 7,2 km/h (2 Bft)
19.04.2013 20:00 9,5 C 8,1 C 79 % 1026,2 hPa 0,0 l/m 0,00 h 0,00 h 0,0 UV-I 14 W/m 9,2 km/h (2 Bft)
19.04.2013 21:00 8,7 C 7,4 C 85 % 1027,0 hPa 0,0 l/m 0,00 h 0,10 h 0,0 UV-I 0 W/m 8,1 km/h (2 Bft)
19.04.2013 22:00 8,5 C 7,4 C 88 % 1027,6 hPa 0,0 l/m 0,00 h 0,00 h 0,0 UV-I 0 W/m 11,5 km/h (2 Bft)
19.04.2013 23:00 7,8 C 6,5 C 88 % 1028,0 hPa 0,0 l/m 0,00 h 0,00 h 0,0 UV-I 0 W/m 6,9 km/h (2 Bft)
20.04.2013 00:00 7,3 C 6,2 C 90 % 1028,6 hPa 0,0 l/m 0,00 h 0,00 h 0,0 UV-I 0 W/m 15,4 km/h (3 Bft)
20.04.2013 01:00 7,1 C 6,1 C 86 % 1029,1 hPa 0,0 l/m 0,00 h 0,00 h 0,0 UV-I 0 W/m 17,2 km/h (3 Bft)
20.04.2013 02:00 5,8 C 4,7 C 87 % 1029,4 hPa 0,0 l/m 0,00 h 0,00 h 0,0 UV-I 0 W/m 13,8 km/h (3 Bft)
20.04.2013 03:00 4,7 C 3,7 C 89 % 1029,9 hPa 0,0 l/m 0,00 h 0,00 h 0,0 UV-I 0 W/m 11,8 km/h (2 Bft)
20.04.2013 04:00 3,9 C 2,9 C 91 % 1030,3 hPa 0,0 l/m 0,00 h 0,00 h 0,0 UV-I 0 W/m 11,2 km/h (2 Bft)
20.04.2013 05:00 3,2 C 2,3 C 93 % 1030,5 hPa 0,0 l/m 0,00 h 0,00 h 0,0 UV-I 0 W/m 11,4 km/h (2 Bft)
20.04.2013 06:00 2,7 C 1,8 C 94 % 1030,6 hPa 0,0 l/m 0,00 h 0,00 h 0,0 UV-I 11 W/m 8,0 km/h (2 Bft)
20.04.2013 07:00 2,7 C 2,1 C 94 % 1030,9 hPa 0,0 l/m 0,00 h 0,00 h 0,0 UV-I 29 W/m 11,1 km/h (2 Bft)
20.04.2013 08:00 3,6 C 3,2 C 90 % 1031,0 hPa 0,0 l/m 0,00 h 0,00 h 0,0 UV-I 48 W/m 13,9 km/h (3 Bft)
20.04.2013 09:00 5,8 C 8,0 C 76 % 1031,1 hPa 0,0 l/m 0,63 h 0,00 h 0,6 UV-I 292 W/m 18,2 km/h (3 Bft)
20.04.2013 10:00 8,2 C 13,8 C 66 % 1031,1 hPa 0,0 l/m 0,93 h 0,00 h 1,1 UV-I 514 W/m 13,3 km/h (3 Bft)
20.04.2013 11:00 8,7 C 10,8 C 62 % 1030,8 hPa 0,0 l/m 0,80 h 0,00 h 1,7 UV-I 577 W/m 19,4 km/h (3 Bft)
20.04.2013 12:00 10,4 C 15,9 C 55 % 1030,3 hPa 0,0 l/m 1,00 h 0,00 h 2,8 UV-I 732 W/m 19,3 km/h (3 Bft)
20.04.2013 13:00 11,3 C 14,5 C 52 % 1029,8 hPa 0,0 l/m 1,00 h 0,00 h 3,1 UV-I 768 W/m 20,8 km/h (4 Bft)
20.04.2013 14:00 11,8 C 11,7 C 53 % 1029,4 hPa 0,0 l/m 1,00 h 0,00 h 2,9 UV-I 752 W/m 22,6 km/h (4 Bft)
20.04.2013 15:00 13,1 C 12,9 C 49 % 1028,7 hPa 0,0 l/m 1,00 h 0,00 h 2,3 UV-I 692 W/m 19,6 km/h (3 Bft)
20.04.2013 16:00 13,3 C 13,4 C 48 % 1028,0 hPa 0,0 l/m 0,93 h 0,00 h 1,4 UV-I 600 W/m 19,7 km/h (3 Bft)
20.04.2013 17:00 12,8 C 12,2 C 49 % 1027,3 hPa 0,0 l/m 0,93 h 0,00 h 0,5 UV-I 362 W/m 20,0 km/h (4 Bft)
20.04.2013 18:00 12,4 C 11,9 C 50 % 1026,9 hPa 0,0 l/m 0,73 h 0,00 h 0,0 UV-I 211 W/m 19,5 km/h (3 Bft)
20.04.2013 19:00 11,9 C 10,8 C 52 % 1026,6 hPa 0,0 l/m 0,13 h 0,00 h 0,0 UV-I 66 W/m 12,6 km/h (3 Bft)
20.04.2013 20:00 10,5 C 8,7 C 55 % 1026,6 hPa 0,0 l/m 0,00 h 0,00 h 0,0 UV-I 15 W/m 3,0 km/h (1 Bft)
20.04.2013 21:00 9,2 C 7,3 C 58 % 1026,9 hPa 0,0 l/m 0,00 h 0,00 h 0,0 UV-I 0 W/m 0,9 km/h (0 Bft)
20.04.2013 22:00 8,5 C 6,7 C 62 % 1026,6 hPa 0,0 l/m 0,00 h 0,00 h 0,0 UV-I 0 W/m 0,7 km/h (0 Bft)
20.04.2013 23:00 7,9 C 6,2 C 64 % 1026,3 hPa 0,0 l/m 0,00 h 0,00 h 0,0 UV-I 0 W/m 0,3 km/h (0 Bft)
21.04.2013 00:00 7,7 C 6,3 C 66 % 1026,0 hPa 0,0 l/m 0,00 h 0,00 h 0,0 UV-I 0 W/m 1,0 km/h (0 Bft)
21.04.2013 01:00 7,0 C 4,9 C 69 % 1025,4 hPa 0,0 l/m 0,00 h 0,00 h 0,0 UV-I 0 W/m 0,2 km/h (0 Bft)
21.04.2013 02:00 5,8 C 4,3 C 74 % 1024,6 hPa 0,0 l/m 0,00 h 0,00 h 0,0 UV-I 0 W/m 1,0 km/h (0 Bft)
21.04.2013 03:00 5,0 C 3,1 C 76 % 1023,9 hPa 0,0 l/m 0,00 h 0,00 h 0,0 UV-I 0 W/m 0,1 km/h (0 Bft)
21.04.2013 04:00 3,9 C 2,0 C 80 % 1023,3 hPa 0,0 l/m 0,00 h 0,00 h 0,0 UV-I 0 W/m 0,1 km/h (0 Bft)
21.04.2013 05:00 3,3 C 2,0 C 85 % 1022,7 hPa 0,0 l/m 0,00 h 0,00 h 0,0 UV-I 0 W/m 0,2 km/h (0 Bft)
21.04.2013 06:00 3,2 C 2,3 C 87 % 1022,2 hPa 0,0 l/m 0,00 h 0,00 h 0,0 UV-I 9 W/m 0,0 km/h (0 Bft)
21.04.2013 07:00 3,8 C 3,7 C 89 % 1021,9 hPa 0,0 l/m 0,00 h 0,00 h 0,0 UV-I 46 W/m 3,3 km/h (1 Bft)
21.04.2013 08:00 5,7 C 5,7 C 85 % 1021,5 hPa 0,0 l/m 0,00 h 0,00 h 0,0 UV-I 61 W/m 1,5 km/h (1 Bft)
21.04.2013 09:00 8,7 C 10,1 C 72 % 1021,2 hPa 0,0 l/m 0,37 h 0,00 h 0,6 UV-I 218 W/m 2,9 km/h (1 Bft)
21.04.2013 10:00 10,6 C 11,4 C 64 % 1020,6 hPa 0,0 l/m 0,00 h 0,00 h 0,0 UV-I 189 W/m 4,1 km/h (1 Bft)
21.04.2013 11:00 11,2 C 11,2 C 62 % 1020,1 hPa 0,0 l/m 0,00 h 0,00 h 0,0 UV-I 151 W/m 1,0 km/h (0 Bft)
21.04.2013 12:00 11,8 C 12,2 C 61 % 1019,5 hPa 0,0 l/m 0,00 h 0,00 h 0,6 UV-I 220 W/m 1,5 km/h (1 Bft)
21.04.2013 13:00 12,3 C 12,3 C 61 % 1018,9 hPa 0,0 l/m 0,00 h 0,00 h 0,5 UV-I 175 W/m 3,2 km/h (1 Bft)
21.04.2013 14:00 12,4 C 12,2 C 60 % 1018,4 hPa 0,0 l/m 0,00 h 0,00 h 0,0 UV-I 149 W/m 1,2 km/h (1 Bft)
21.04.2013 15:00 12,5 C 12,1 C 61 % 1017,7 hPa 0,0 l/m 0,00 h 0,00 h 0,0 UV-I 118 W/m 1,5 km/h (1 Bft)
21.04.2013 16:00 12,9 C 12,5 C 62 % 1017,1 hPa 0,0 l/m 0,00 h 0,00 h 0,0 UV-I 121 W/m 0,9 km/h (0 Bft)
21.04.2013 17:00 13,1 C 11,9 C 61 % 1016,6 hPa 0,0 l/m 0,00 h 0,00 h 0,0 UV-I 70 W/m 0,1 km/h (0 Bft)
21.04.2013 18:00 12,9 C 11,7 C 62 % 1016,3 hPa 0,0 l/m 0,00 h 0,00 h 0,0 UV-I 50 W/m 0,2 km/h (0 Bft)
21.04.2013 19:00 12,7 C 11,2 C 64 % 1016,0 hPa 0,0 l/m 0,00 h 0,00 h 0,0 UV-I 31 W/m 0,1 km/h (0 Bft)
21.04.2013 20:00 12,0 C 10,4 C 67 % 1016,3 hPa 0,0 l/m 0,00 h 0,00 h 0,0 UV-I 7 W/m 0,5 km/h (0 Bft)
21.04.2013 21:00 11,5 C 9,5 C 68 % 1016,5 hPa 0,0 l/m 0,00 h 0,00 h 0,0 UV-I 0 W/m 0,0 km/h (0 Bft)
21.04.2013 22:00 11,0 C 9,0 C 71 % 1016,5 hPa 0,0 l/m 0,00 h 0,00 h 0,0 UV-I 0 W/m 0,0 km/h (0 Bft)
21.04.2013 23:00 10,7 C 8,6 C 73 % 1016,4 hPa 0,0 l/m 0,00 h 0,00 h 0,0 UV-I 0 W/m 0,0 km/h (0 Bft)
Min-Datum _ 20.04.13 20.04.13 16.04.13 18.04.13 - - - - - 15.04.13
_ Min-Zeit 06:40 05:56 16:26 03:50 - - - - - 05:22
Minimum _ 2,6 C 1,8 C 41 % 1010,3 hPa - - - - - 0,0 km/h (0 Bft)
Max-Datum _ 17.04.13 17.04.13 16.04.13 20.04.13 15.04.13 15.04.13 15.04.13 18.04.13 19.04.13 18.04.13
_ Max-Zeit 17:12 16:30 07:56 09:02 15:20 09:14 14:02 13:24 12:36 12:10
Maximum _ 24,4 C 25,7 C 100 % 1031,2 hPa 0,4 l/m 0,03 h 0,03 h 4,1 UV-I 951 W/m 54,1 km/h
W (7 Bft)
Durchschnitt _ 13,0 C 12,1 C 71 % 1020,4 hPa #0,4 l/m #30:44 h #1:44 h 1,5 UV-I 235 W/m 8,8 km/h (2 Bft)
© 2013 W. Hausmann